Time;durP1;ratioP1;P1;durP2;ratioP2;P2;SDS_P1;SDS_P2;PMS_P1;PMS_P2;Temp;Humidity;BMP_temperature;BMP_pressure;BME280_temperature;BME280_humidity;BME280_pressure;Samples;Min_cycle;Max_cycle;Signal;HPM_P1;HPM_P2
2021/07/09 00:01:59;;;;;;;19.15;17.65;;;;;;;;;;5082566;28;24966;-56
2021/07/09 00:04:24;;;;;;;21.43;19.73;;;;;;;;;;5103523;28;24426;-56
2021/07/09 00:06:50;;;;;;;17.63;16.23;;;;;;;;;;5086341;28;24509;-55
2021/07/09 00:09:15;;;;;;;17.53;16.23;;;;;;;;;;5083066;28;24463;-55
2021/07/09 00:11:42;;;;;;;15.10;14.00;;;;;;;;;;5081032;28;24963;-56
2021/07/09 00:14:08;;;;;;;16.63;15.32;;;;;;;;;;5072789;28;24407;-56
2021/07/09 00:16:33;;;;;;;16.88;15.57;;;;;;;;;;5080547;28;25029;-56
2021/07/09 00:18:59;;;;;;;16.60;15.40;;;;;;;;;;5085433;28;24426;-55
2021/07/09 00:21:25;;;;;;;16.38;15.07;;;;;;;;;;5079534;28;24417;-56
2021/07/09 00:23:51;;;;;;;17.15;15.85;;;;;;;;;;5077065;28;24415;-56
2021/07/09 00:26:16;;;;;;;17.83;16.52;;;;;;;;;;5087164;28;24466;-55
2021/07/09 00:28:41;;;;;;;17.70;16.40;;;;;;;;;;5082677;28;24442;-55
2021/07/09 00:31:06;;;;;;;19.37;17.80;;;;;;;;;;5091791;28;24410;-56
2021/07/09 00:33:32;;;;;;;16.70;15.30;;;;;;;;;;5080955;28;24410;-55
2021/07/09 00:35:57;;;;;;;19.20;17.80;;;;;;;;;;5077587;28;24657;-56
2021/07/09 00:38:22;;;;;;;15.98;14.85;;;;;;;;;;5080369;28;24501;-55
2021/07/09 00:40:47;;;;;;;16.83;15.57;;;;;;;;;;5073289;28;24418;-56
2021/07/09 00:43:12;;;;;;;14.50;13.50;;;;;;;;;;5092955;28;24501;-55
2021/07/09 00:45:38;;;;;;;15.60;14.50;;;;;;;;;;5082425;28;24426;-55
2021/07/09 00:48:03;;;;;;;13.50;12.60;;;;;;;;;;5089813;28;24981;-55
2021/07/09 00:50:28;;;;;;;12.73;11.93;;;;;;;;;;5088388;28;25010;-55
2021/07/09 00:52:53;;;;;;;15.05;13.95;;;;;;;;;;5085784;28;24438;-55
2021/07/09 00:55:19;;;;;;;14.27;13.17;;;;;;;;;;5079552;28;24425;-55
2021/07/09 00:57:46;;;;;;;15.27;14.05;;;;;;;;;;5072436;28;24415;-54
2021/07/09 01:00:12;;;;;;;13.87;12.87;;;;;;;;;;5083400;28;24510;-55
2021/07/09 01:02:37;;;;;;;12.70;11.87;;;;;;;;;;5088953;28;24410;-55
2021/07/09 01:05:06;;;;;;;12.70;11.80;;;;;;;;;;5083463;28;24419;-54
2021/07/09 01:07:31;;;;;;;13.23;12.20;;;;;;;;;;5092264;28;24510;-55
2021/07/09 01:09:56;;;;;;;12.90;11.90;;;;;;;;;;5089831;28;25039;-55
2021/07/09 01:12:21;;;;;;;12.23;11.43;;;;;;;;;;5093294;28;24671;-55
2021/07/09 01:14:47;;;;;;;13.20;12.20;;;;;;;;;;5076086;28;24421;-55
2021/07/09 01:17:13;;;;;;;12.50;11.60;;;;;;;;;;5093273;27;24435;-55
2021/07/09 01:19:39;;;;;;;10.70;9.90;;;;;;;;;;5075636;28;24833;-55
2021/07/09 01:22:05;;;;;;;11.68;10.88;;;;;;;;;;5083386;28;24479;-55
2021/07/09 01:24:31;;;;;;;12.45;11.55;;;;;;;;;;5091728;28;24431;-55
2021/07/09 01:26:56;;;;;;;12.40;11.60;;;;;;;;;;5088794;28;24656;-55
2021/07/09 01:29:21;;;;;;;11.95;11.15;;;;;;;;;;5100495;28;24670;-56
2021/07/09 01:31:46;;;;;;;12.40;11.60;;;;;;;;;;5088591;28;24502;-55
2021/07/09 01:34:12;;;;;;;12.90;12.00;;;;;;;;;;5097750;28;24501;-55
2021/07/09 01:36:37;;;;;;;11.67;10.87;;;;;;;;;;5091860;28;24414;-55
2021/07/09 01:39:03;;;;;;;13.80;12.90;;;;;;;;;;5087936;28;24445;-55
2021/07/09 01:41:29;;;;;;;14.15;13.23;;;;;;;;;;5098341;27;24441;-55
2021/07/09 01:43:54;;;;;;;12.40;11.50;;;;;;;;;;5086984;28;24440;-56
2021/07/09 01:46:19;;;;;;;12.47;11.47;;;;;;;;;;5080518;28;24411;-57
2021/07/09 01:48:45;;;;;;;12.37;11.47;;;;;;;;;;5070195;28;24434;-57
2021/07/09 01:51:10;;;;;;;12.43;11.53;;;;;;;;;;5081778;28;25232;-57
2021/07/09 01:53:35;;;;;;;13.10;12.00;;;;;;;;;;5081652;28;24987;-57
2021/07/09 01:56:00;;;;;;;11.20;10.40;;;;;;;;;;5083342;28;24459;-57
2021/07/09 01:58:25;;;;;;;11.70;10.80;;;;;;;;;;5089802;28;24533;-57
2021/07/09 02:00:51;;;;;;;10.90;10.10;;;;;;;;;;5081221;28;24419;-57
2021/07/09 02:03:16;;;;;;;12.53;11.63;;;;;;;;;;5076391;28;24907;-56
2021/07/09 02:05:42;;;;;;;12.00;11.10;;;;;;;;;;5089708;28;25270;-57
2021/07/09 02:08:07;;;;;;;11.70;10.90;;;;;;;;;;5084628;28;24433;-57
2021/07/09 02:10:34;;;;;;;13.77;12.80;;;;;;;;;;5080645;28;24430;-57
2021/07/09 02:13:00;;;;;;;12.30;11.50;;;;;;;;;;5075338;28;24467;-57
2021/07/09 02:15:27;;;;;;;11.20;10.40;;;;;;;;;;5087925;28;24817;-57
2021/07/09 02:17:53;;;;;;;12.40;11.60;;;;;;;;;;5096449;28;24449;-58
2021/07/09 02:20:19;;;;;;;12.10;11.30;;;;;;;;;;5087130;28;25046;-59
2021/07/09 02:22:45;;;;;;;11.45;10.75;;;;;;;;;;5083036;28;25005;-58
2021/07/09 02:25:10;;;;;;;10.20;9.50;;;;;;;;;;5093269;28;24445;-58
2021/07/09 02:27:37;;;;;;;11.70;10.90;;;;;;;;;;5076799;28;24423;-58
2021/07/09 02:30:09;;;;;;;10.60;9.80;;;;;;;;;;5080310;28;24501;-58
2021/07/09 02:32:35;;;;;;;12.00;11.10;;;;;;;;;;5080073;28;24898;-58
2021/07/09 02:35:00;;;;;;;11.90;11.10;;;;;;;;;;5089314;28;24440;-58
2021/07/09 02:37:25;;;;;;;10.53;9.83;;;;;;;;;;5080440;28;25040;-57
2021/07/09 02:39:50;;;;;;;11.68;10.88;;;;;;;;;;5088002;28;24448;-58
2021/07/09 02:42:15;;;;;;;11.00;10.30;;;;;;;;;;5100167;28;24810;-59
2021/07/09 02:44:41;;;;;;;12.27;11.48;;;;;;;;;;5071315;28;24421;-58
2021/07/09 02:47:06;;;;;;;11.80;11.00;;;;;;;;;;5085110;28;24961;-58
2021/07/09 02:49:31;;;;;;;12.23;11.43;;;;;;;;;;5075303;28;24426;-58
2021/07/09 02:51:56;;;;;;;11.67;10.97;;;;;;;;;;5077277;28;24399;-58
2021/07/09 02:54:21;;;;;;;11.70;11.00;;;;;;;;;;5094767;28;24406;-58
2021/07/09 02:56:47;;;;;;;10.88;10.18;;;;;;;;;;5092374;28;24445;-58
2021/07/09 02:59:12;;;;;;;11.77;11.07;;;;;;;;;;5089965;28;24410;-58
2021/07/09 03:01:41;;;;;;;13.30;12.40;;;;;;;;;;5090467;28;24434;-58
2021/07/09 03:04:06;;;;;;;14.00;13.00;;;;;;;;;;5088714;28;24905;-58
2021/07/09 03:06:31;;;;;;;17.10;15.90;;;;;;;;;;5083060;28;24417;-58
2021/07/09 03:08:56;;;;;;;13.20;12.40;;;;;;;;;;5082451;28;24937;-57
2021/07/09 03:11:22;;;;;;;14.50;13.60;;;;;;;;;;5085540;28;24468;-58
2021/07/09 03:13:47;;;;;;;13.80;12.90;;;;;;;;;;5097597;28;25234;-58
2021/07/09 03:16:12;;;;;;;12.43;11.60;;;;;;;;;;5093514;28;24529;-58
2021/07/09 03:18:37;;;;;;;12.13;11.23;;;;;;;;;;5076740;28;24445;-58
2021/07/09 03:21:03;;;;;;;17.90;16.60;;;;;;;;;;5098202;28;25012;-58
2021/07/09 03:23:28;;;;;;;15.37;14.27;;;;;;;;;;5093668;28;25182;-58
2021/07/09 03:25:53;;;;;;;12.88;12.02;;;;;;;;;;5097187;28;24406;-57
2021/07/09 03:28:18;;;;;;;15.93;14.85;;;;;;;;;;5086963;28;24501;-58
2021/07/09 03:30:44;;;;;;;12.27;11.48;;;;;;;;;;5102820;28;24445;-57
2021/07/09 03:33:09;;;;;;;12.90;12.00;;;;;;;;;;5096587;28;24483;-57
2021/07/09 03:35:35;;;;;;;11.80;11.00;;;;;;;;;;5107225;28;24818;-58
2021/07/09 03:38:00;;;;;;;9.77;9.07;;;;;;;;;;5097663;28;24412;-57
2021/07/09 03:40:25;;;;;;;8.10;7.60;;;;;;;;;;5078676;28;24414;-58
2021/07/09 03:42:50;;;;;;;7.97;7.47;;;;;;;;;;5094038;28;25019;-58
2021/07/09 03:45:15;;;;;;;7.60;7.20;;;;;;;;;;5094019;28;24970;-58
2021/07/09 03:47:40;;;;;;;7.87;7.37;;;;;;;;;;5096564;28;24413;-58
2021/07/09 03:50:06;;;;;;;7.30;6.80;;;;;;;;;;5092345;28;25023;-58
2021/07/09 03:52:31;;;;;;;7.20;6.70;;;;;;;;;;5079131;28;24527;-58
2021/07/09 03:54:56;;;;;;;6.90;6.50;;;;;;;;;;5091116;28;24421;-57
2021/07/09 03:57:21;;;;;;;6.95;6.50;;;;;;;;;;5092447;28;24395;-58
2021/07/09 03:59:46;;;;;;;6.20;5.90;;;;;;;;;;5080274;28;24467;-58
2021/07/09 04:02:12;;;;;;;6.70;6.40;;;;;;;;;;5089039;28;24987;-58
2021/07/09 04:04:37;;;;;;;7.00;6.60;;;;;;;;;;5076183;28;24411;-59
2021/07/09 04:07:02;;;;;;;6.32;6.03;;;;;;;;;;5083337;28;24513;-58
2021/07/09 04:09:27;;;;;;;7.00;6.60;;;;;;;;;;5093347;28;24437;-57
2021/07/09 04:11:52;;;;;;;6.30;5.90;;;;;;;;;;5098530;28;24403;-58
2021/07/09 04:14:17;;;;;;;6.70;6.30;;;;;;;;;;5098126;28;24875;-58
2021/07/09 04:16:43;;;;;;;6.43;6.03;;;;;;;;;;5072791;28;25042;-58
2021/07/09 04:19:08;;;;;;;6.30;5.90;;;;;;;;;;5084667;28;24443;-58
2021/07/09 04:21:33;;;;;;;5.90;5.50;;;;;;;;;;5087663;28;24485;-58
2021/07/09 04:23:58;;;;;;;6.03;5.63;;;;;;;;;;5088496;28;24847;-58
2021/07/09 04:26:23;;;;;;;5.37;5.07;;;;;;;;;;5092261;28;24935;-58
2021/07/09 04:28:48;;;;;;;5.10;4.80;;;;;;;;;;5071666;28;24845;-58
2021/07/09 04:31:14;;;;;;;4.80;4.50;;;;;;;;;;5072351;28;24471;-58
2021/07/09 04:33:40;;;;;;;4.87;4.57;;;;;;;;;;5070810;28;24465;-58
2021/07/09 04:36:05;;;;;;;5.10;4.80;;;;;;;;;;5077560;28;24418;-58
2021/07/09 04:38:31;;;;;;;5.40;5.10;;;;;;;;;;5071587;28;24414;-58
2021/07/09 04:40:56;;;;;;;5.43;5.13;;;;;;;;;;5068987;28;24418;-58
2021/07/09 04:43:21;;;;;;;4.75;4.53;;;;;;;;;;5094466;28;24412;-58
2021/07/09 04:45:46;;;;;;;5.67;5.37;;;;;;;;;;5093638;28;24423;-58
2021/07/09 04:48:11;;;;;;;5.60;5.20;;;;;;;;;;5085115;28;24889;-58
2021/07/09 04:50:36;;;;;;;5.10;4.80;;;;;;;;;;5083729;28;24441;-58
2021/07/09 04:53:02;;;;;;;4.73;4.47;;;;;;;;;;5097494;28;24819;-58
2021/07/09 04:55:27;;;;;;;4.65;4.45;;;;;;;;;;5099007;28;24513;-58
2021/07/09 04:57:52;;;;;;;5.30;5.00;;;;;;;;;;5095885;28;24853;-58
2021/07/09 05:00:17;;;;;;;5.00;4.70;;;;;;;;;;5088426;28;24420;-59
2021/07/09 05:02:43;;;;;;;4.60;4.40;;;;;;;;;;5097768;28;24410;-58
2021/07/09 05:05:09;;;;;;;4.93;4.63;;;;;;;;;;5086458;28;24410;-58
2021/07/09 05:07:34;;;;;;;5.40;5.10;;;;;;;;;;5096377;28;26319;-58
2021/07/09 05:10:00;;;;;;;5.18;4.88;;;;;;;;;;5091805;28;24445;-58
2021/07/09 05:12:25;;;;;;;4.90;4.60;;;;;;;;;;5095279;28;24959;-59
2021/07/09 05:14:50;;;;;;;6.05;5.65;;;;;;;;;;5093098;28;24488;-58
2021/07/09 05:17:15;;;;;;;5.60;5.30;;;;;;;;;;5091211;28;24558;-57
2021/07/09 05:19:40;;;;;;;5.70;5.40;;;;;;;;;;5084036;28;24417;-58
2021/07/09 05:22:08;;;;;;;5.32;5.00;;;;;;;;;;5087050;28;24437;-57
2021/07/09 05:24:33;;;;;;;5.00;4.70;;;;;;;;;;5103018;28;24416;-58
2021/07/09 05:26:58;;;;;;;5.67;5.37;;;;;;;;;;5107045;28;24783;-57
2021/07/09 05:29:23;;;;;;;5.10;4.80;;;;;;;;;;5107216;28;24410;-58
2021/07/09 05:31:48;;;;;;;6.18;5.78;;;;;;;;;;5089816;28;24406;-58
2021/07/09 05:34:13;;;;;;;6.60;6.20;;;;;;;;;;5086589;28;24741;-58
2021/07/09 05:36:40;;;;;;;5.60;5.30;;;;;;;;;;5086605;28;24481;-57
2021/07/09 05:39:05;;;;;;;5.90;5.60;;;;;;;;;;5086753;28;24409;-57
2021/07/09 05:41:30;;;;;;;5.83;5.43;;;;;;;;;;5084231;28;24410;-57
2021/07/09 05:43:55;;;;;;;5.80;5.40;;;;;;;;;;5086291;28;24401;-57
2021/07/09 05:46:21;;;;;;;5.70;5.40;;;;;;;;;;5088906;28;24978;-58
2021/07/09 05:48:46;;;;;;;5.00;4.70;;;;;;;;;;5095803;28;24540;-58
2021/07/09 05:51:11;;;;;;;6.10;5.80;;;;;;;;;;5091870;28;24509;-57
2021/07/09 05:53:36;;;;;;;5.50;5.20;;;;;;;;;;5070201;28;25113;-58
2021/07/09 05:56:01;;;;;;;5.90;5.50;;;;;;;;;;5067572;28;24394;-57
2021/07/09 05:58:27;;;;;;;7.50;7.00;;;;;;;;;;5067115;28;24789;-57
2021/07/09 06:00:52;;;;;;;5.27;4.97;;;;;;;;;;5067782;28;24419;-58
2021/07/09 06:03:17;;;;;;;7.30;6.80;;;;;;;;;;5090059;28;24442;-58
2021/07/09 06:05:43;;;;;;;7.70;7.20;;;;;;;;;;5085207;28;24422;-58
2021/07/09 06:08:08;;;;;;;9.20;8.60;;;;;;;;;;5102406;28;24514;-58
2021/07/09 06:10:35;;;;;;;6.93;6.53;;;;;;;;;;5104853;28;24389;-58
2021/07/09 06:13:00;;;;;;;7.00;6.50;;;;;;;;;;5078920;28;25212;-58
2021/07/09 06:15:26;;;;;;;6.93;6.53;;;;;;;;;;5078149;28;24637;-58
2021/07/09 06:17:51;;;;;;;6.30;5.90;;;;;;;;;;5087052;28;24792;-58
2021/07/09 06:20:16;;;;;;;7.90;7.30;;;;;;;;;;5068829;28;24418;-58
2021/07/09 06:22:42;;;;;;;7.00;6.50;;;;;;;;;;5066373;28;24442;-58
2021/07/09 06:25:07;;;;;;;8.07;7.47;;;;;;;;;;5066714;28;24959;-58
2021/07/09 06:27:32;;;;;;;7.47;6.93;;;;;;;;;;5083766;28;24414;-58
2021/07/09 06:29:57;;;;;;;7.05;6.55;;;;;;;;;;5077506;28;24591;-58
2021/07/09 06:32:22;;;;;;;6.87;6.37;;;;;;;;;;5066447;28;24399;-59
2021/07/09 06:34:48;;;;;;;6.72;6.32;;;;;;;;;;5080153;28;24501;-59
2021/07/09 06:37:13;;;;;;;6.10;5.70;;;;;;;;;;5086814;28;24484;-58
2021/07/09 06:39:38;;;;;;;6.00;5.70;;;;;;;;;;5086927;28;24736;-58
2021/07/09 06:42:03;;;;;;;6.80;6.30;;;;;;;;;;5086212;28;24394;-58
2021/07/09 06:44:28;;;;;;;6.00;5.60;;;;;;;;;;5082399;28;24414;-58
2021/07/09 06:46:53;;;;;;;6.60;6.18;;;;;;;;;;5065657;28;24433;-58
2021/07/09 06:49:18;;;;;;;7.00;6.60;;;;;;;;;;5095858;28;24484;-58
2021/07/09 06:51:44;;;;;;;6.28;5.88;;;;;;;;;;5080977;28;24430;-58
2021/07/09 06:54:09;;;;;;;6.68;6.18;;;;;;;;;;5094131;28;24618;-58
2021/07/09 06:56:34;;;;;;;5.50;5.20;;;;;;;;;;5087020;28;24452;-59
2021/07/09 06:58:59;;;;;;;6.63;6.22;;;;;;;;;;5091722;28;24495;-58
2021/07/09 07:01:24;;;;;;;6.30;5.90;;;;;;;;;;5103312;28;24421;-59
2021/07/09 07:03:49;;;;;;;6.50;6.00;;;;;;;;;;5093425;28;24911;-57
2021/07/09 07:06:15;;;;;;;5.20;4.90;;;;;;;;;;5083152;28;24423;-57
2021/07/09 07:08:40;;;;;;;6.43;6.03;;;;;;;;;;5088287;28;24484;-57
2021/07/09 07:11:05;;;;;;;6.23;5.83;;;;;;;;;;5103705;28;24417;-57
2021/07/09 07:13:30;;;;;;;6.87;6.47;;;;;;;;;;5109084;28;24978;-58
2021/07/09 07:15:55;;;;;;;6.10;5.70;;;;;;;;;;5081067;28;24435;-58
2021/07/09 07:18:20;;;;;;;6.30;5.90;;;;;;;;;;5068318;28;24497;-58
2021/07/09 07:20:46;;;;;;;7.20;6.70;;;;;;;;;;5068131;28;24434;-58
2021/07/09 07:23:12;;;;;;;7.73;7.23;;;;;;;;;;5067974;28;24430;-58
2021/07/09 07:25:38;;;;;;;8.82;8.23;;;;;;;;;;5074692;28;24997;-58
2021/07/09 07:28:03;;;;;;;8.30;7.70;;;;;;;;;;5088398;28;24430;-58
2021/07/09 07:30:29;;;;;;;8.43;7.82;;;;;;;;;;5088439;28;24436;-59
2021/07/09 07:32:54;;;;;;;7.57;7.07;;;;;;;;;;5087834;28;24824;-59
2021/07/09 07:35:20;;;;;;;7.40;6.90;;;;;;;;;;5077752;28;24407;-59
2021/07/09 07:37:46;;;;;;;9.00;8.10;;;;;;;;;;5067895;28;24498;-58
2021/07/09 07:40:11;;;;;;;8.50;7.90;;;;;;;;;;5068244;28;24387;-58
2021/07/09 07:42:36;;;;;;;9.43;8.73;;;;;;;;;;5067793;28;24430;-58
2021/07/09 07:45:03;;;;;;;10.50;9.70;;;;;;;;;;5070349;28;24421;-59
2021/07/09 07:47:29;;;;;;;11.70;10.80;;;;;;;;;;5087970;28;24745;-58
2021/07/09 07:49:54;;;;;;;9.60;8.90;;;;;;;;;;5087590;28;24406;-59
2021/07/09 07:52:19;;;;;;;10.80;10.00;;;;;;;;;;5087942;28;24386;-58
2021/07/09 07:54:44;;;;;;;10.05;9.25;;;;;;;;;;5080219;28;24657;-58
2021/07/09 07:57:09;;;;;;;9.20;8.50;;;;;;;;;;5067344;28;24443;-58
2021/07/09 07:59:34;;;;;;;9.30;8.60;;;;;;;;;;5067585;28;24927;-58
2021/07/09 08:01:59;;;;;;;8.68;8.07;;;;;;;;;;5067386;28;24449;-58
2021/07/09 08:04:25;;;;;;;7.30;6.80;;;;;;;;;;5067484;28;24371;-58
2021/07/09 08:06:50;;;;;;;7.57;7.03;;;;;;;;;;5087526;28;24398;-58
2021/07/09 08:09:15;;;;;;;7.80;7.20;;;;;;;;;;5087538;28;25102;-58
2021/07/09 08:11:40;;;;;;;7.40;6.90;;;;;;;;;;5087724;28;24400;-59
2021/07/09 08:14:05;;;;;;;7.80;7.10;;;;;;;;;;5082160;28;25016;-58
2021/07/09 08:16:31;;;;;;;8.02;7.45;;;;;;;;;;5066534;28;24790;-58
2021/07/09 08:18:56;;;;;;;7.70;7.20;;;;;;;;;;5067119;28;24933;-58
2021/07/09 08:21:21;;;;;;;7.40;6.90;;;;;;;;;;5067280;28;24389;-58
2021/07/09 08:23:47;;;;;;;6.80;6.30;;;;;;;;;;5067007;28;24784;-58
2021/07/09 08:26:12;;;;;;;7.63;7.13;;;;;;;;;;5084657;28;24508;-58
2021/07/09 08:28:37;;;;;;;9.10;8.50;;;;;;;;;;5087375;28;24445;-58
2021/07/09 08:31:02;;;;;;;10.20;9.30;;;;;;;;;;5087419;28;24422;-58
2021/07/09 08:33:27;;;;;;;9.80;9.00;;;;;;;;;;5087403;28;24768;-58
2021/07/09 08:35:53;;;;;;;10.10;9.40;;;;;;;;;;5085249;28;24410;-58
2021/07/09 08:38:18;;;;;;;11.60;10.70;;;;;;;;;;5087494;28;24463;-58
2021/07/09 08:40:43;;;;;;;10.07;9.27;;;;;;;;;;5087157;28;24963;-58
2021/07/09 08:43:09;;;;;;;10.10;9.40;;;;;;;;;;5087107;28;24471;-58
2021/07/09 08:45:34;;;;;;;9.70;9.00;;;;;;;;;;5085142;28;24467;-58
2021/07/09 08:48:00;;;;;;;9.37;8.67;;;;;;;;;;5086914;28;25015;-58
2021/07/09 08:50:25;;;;;;;9.63;8.93;;;;;;;;;;5086843;28;24988;-58
2021/07/09 08:52:53;;;;;;;9.10;8.50;;;;;;;;;;5086982;28;24519;-57
2021/07/09 08:55:19;;;;;;;8.23;7.53;;;;;;;;;;5087206;28;24395;-57
2021/07/09 08:57:45;;;;;;;7.90;7.30;;;;;;;;;;5085688;28;24429;-60
2021/07/09 09:00:19;;;;;;;8.70;8.05;;;;;;;;;;5086958;28;24550;-57
2021/07/09 09:02:45;;;;;;;8.00;7.50;;;;;;;;;;5086650;28;24738;-58
2021/07/09 09:05:18;;;;;;;7.68;7.18;;;;;;;;;;5086963;28;24571;-58
2021/07/09 09:07:44;;;;;;;7.90;7.30;;;;;;;;;;5084930;28;24406;-58
2021/07/09 09:10:09;;;;;;;7.73;7.13;;;;;;;;;;5087102;28;24437;-58
2021/07/09 09:12:34;;;;;;;6.50;6.10;;;;;;;;;;5086389;28;24391;-57
2021/07/09 09:15:02;;;;;;;7.25;6.75;;;;;;;;;;5087019;28;24990;-58
2021/07/09 09:17:35;;;;;;;7.75;7.25;;;;;;;;;;5084501;28;24470;-58
2021/07/09 09:20:17;;;;;;;7.40;6.90;;;;;;;;;;5086844;28;24463;-58
2021/07/09 09:22:53;;;;;;;7.00;6.60;;;;;;;;;;5086993;28;24438;-57
2021/07/09 09:25:20;;;;;;;6.00;5.60;;;;;;;;;;5087107;28;24419;-57
2021/07/09 09:27:59;;;;;;;6.32;5.93;;;;;;;;;;5086695;28;24414;-58
2021/07/09 09:30:24;;;;;;;6.10;5.60;;;;;;;;;;5090815;28;24745;-57
2021/07/09 09:32:50;;;;;;;6.00;5.60;;;;;;;;;;5090279;28;24477;-57
2021/07/09 09:35:25;;;;;;;6.30;5.90;;;;;;;;;;5090478;28;24387;-57
2021/07/09 09:37:52;;;;;;;4.50;4.20;;;;;;;;;;5090197;28;24773;-57
2021/07/09 09:40:17;;;;;;;4.80;4.50;;;;;;;;;;5089026;28;24455;-57
2021/07/09 09:42:43;;;;;;;4.70;4.40;;;;;;;;;;5090142;28;24800;-57
2021/07/09 09:45:08;;;;;;;5.10;4.70;;;;;;;;;;5090365;28;24989;-56
2021/07/09 09:47:35;;;;;;;5.50;5.20;;;;;;;;;;5090233;28;24414;-56
2021/07/09 09:50:03;;;;;;;6.00;5.60;;;;;;;;;;5088295;28;24452;-57
2021/07/09 09:52:31;;;;;;;5.60;5.30;;;;;;;;;;5090232;28;24484;-57
2021/07/09 09:54:56;;;;;;;5.82;5.50;;;;;;;;;;5089833;28;24490;-57
2021/07/09 09:57:22;;;;;;;8.20;7.70;;;;;;;;;;5090377;28;24954;-57
2021/07/09 09:59:50;;;;;;;7.00;6.60;;;;;;;;;;5088859;28;24402;-57
2021/07/09 10:02:16;;;;;;;6.97;6.47;;;;;;;;;;5089907;28;24433;-57
2021/07/09 10:04:41;;;;;;;7.68;7.18;;;;;;;;;;5089652;28;24993;-56
2021/07/09 10:07:06;;;;;;;9.37;8.73;;;;;;;;;;5089923;28;24406;-57
2021/07/09 10:09:31;;;;;;;8.70;8.00;;;;;;;;;;5090190;28;24418;-56
2021/07/09 10:11:58;;;;;;;7.67;7.17;;;;;;;;;;5086866;28;24803;-57
2021/07/09 10:14:26;;;;;;;7.85;7.35;;;;;;;;;;5089680;28;24382;-57
2021/07/09 10:16:57;;;;;;;8.80;8.20;;;;;;;;;;5089730;28;24438;-57
2021/07/09 10:19:27;;;;;;;8.20;7.60;;;;;;;;;;5089864;28;24536;-56
2021/07/09 10:21:52;;;;;;;7.95;7.45;;;;;;;;;;5087983;28;24414;-56
2021/07/09 10:24:18;;;;;;;8.00;7.50;;;;;;;;;;5089178;28;24814;-57
2021/07/09 10:26:55;;;;;;;8.20;7.70;;;;;;;;;;5089661;28;24503;-57
2021/07/09 10:29:22;;;;;;;8.43;7.93;;;;;;;;;;5089849;28;24426;-56
2021/07/09 10:31:48;;;;;;;9.27;8.67;;;;;;;;;;5087205;28;24442;-57
2021/07/09 10:34:29;;;;;;;8.80;8.30;;;;;;;;;;5088981;28;24469;-57
2021/07/09 10:36:56;;;;;;;8.48;7.97;;;;;;;;;;5089083;28;24802;-57
2021/07/09 10:39:34;;;;;;;9.27;8.77;;;;;;;;;;5088902;28;24449;-57
2021/07/09 10:42:12;;;;;;;8.88;8.38;;;;;;;;;;5087508;28;24414;-56
2021/07/09 10:44:37;;;;;;;8.40;7.90;;;;;;;;;;5089089;28;24386;-56
2021/07/09 10:47:15;;;;;;;8.60;8.10;;;;;;;;;;5088800;28;24840;-56
2021/07/09 10:49:49;;;;;;;7.68;7.20;;;;;;;;;;5089235;28;25057;-56
2021/07/09 10:52:34;;;;;;;6.82;6.50;;;;;;;;;;5087184;28;24506;-56
2021/07/09 10:54:59;;;;;;;6.88;6.47;;;;;;;;;;5088764;28;24470;-57
2021/07/09 10:57:24;;;;;;;7.70;7.20;;;;;;;;;;5089096;28;24428;-57
2021/07/09 11:00:09;;;;;;;6.80;6.40;;;;;;;;;;5089057;28;24489;-56
2021/07/09 11:02:52;;;;;;;6.90;6.50;;;;;;;;;;5087712;28;24395;-56
2021/07/09 11:05:36;;;;;;;7.20;6.80;;;;;;;;;;5080249;28;24399;-57
2021/07/09 11:08:20;;;;;;;7.20;6.70;;;;;;;;;;5088615;28;24402;-57
2021/07/09 11:10:55;;;;;;;6.70;6.30;;;;;;;;;;5088846;28;24426;-57
2021/07/09 11:13:39;;;;;;;6.13;5.73;;;;;;;;;;5086725;28;24410;-57
2021/07/09 11:16:16;;;;;;;6.30;5.90;;;;;;;;;;5088243;28;24438;-58
2021/07/09 11:19:04;;;;;;;5.20;4.90;;;;;;;;;;5088678;28;24394;-56
2021/07/09 11:21:29;;;;;;;4.40;4.20;;;;;;;;;;5082741;28;24765;-57
2021/07/09 11:23:54;;;;;;;4.10;3.90;;;;;;;;;;5086199;28;24812;-56
2021/07/09 11:26:20;;;;;;;4.10;3.90;;;;;;;;;;5088816;28;24463;-57
2021/07/09 11:28:45;;;;;;;4.10;3.80;;;;;;;;;;5088326;28;24414;-56
2021/07/09 11:31:10;;;;;;;4.40;4.20;;;;;;;;;;5086526;28;24757;-56
2021/07/09 11:33:35;;;;;;;3.80;3.60;;;;;;;;;;5071555;28;24434;-56
2021/07/09 11:36:15;;;;;;;3.40;3.20;;;;;;;;;;5067952;28;24495;-57
2021/07/09 11:39:00;;;;;;;4.55;4.35;;;;;;;;;;5067857;28;24959;-56
2021/07/09 11:41:25;;;;;;;3.88;3.58;;;;;;;;;;5067682;28;24415;-56
2021/07/09 11:43:51;;;;;;;3.50;3.20;;;;;;;;;;5083629;28;25039;-56
2021/07/09 11:46:17;;;;;;;3.00;2.80;;;;;;;;;;5088060;28;24399;-56
2021/07/09 11:48:42;;;;;;;3.42;3.22;;;;;;;;;;5088024;28;24414;-56
2021/07/09 11:51:08;;;;;;;2.50;2.40;;;;;;;;;;5088162;28;24807;-57
2021/07/09 11:53:33;;;;;;;2.70;2.60;;;;;;;;;;5086477;28;24414;-57
2021/07/09 11:56:12;;;;;;;2.60;2.40;;;;;;;;;;5087788;28;24493;-57
2021/07/09 11:58:37;;;;;;;2.17;1.98;;;;;;;;;;5088019;28;24394;-56
2021/07/09 12:01:02;;;;;;;2.20;2.10;;;;;;;;;;5087911;28;24764;-57
2021/07/09 12:03:27;;;;;;;2.70;2.15;;;;;;;;;;5085378;28;25235;-56
2021/07/09 12:05:52;;;;;;;1.90;1.80;;;;;;;;;;5087839;28;24395;-57
2021/07/09 12:08:17;;;;;;;1.80;1.70;;;;;;;;;;5087823;28;24417;-57
2021/07/09 12:10:43;;;;;;;1.70;1.60;;;;;;;;;;5087649;28;24413;-56
2021/07/09 12:13:08;;;;;;;1.50;1.50;;;;;;;;;;5087469;28;24604;-57
2021/07/09 12:15:34;;;;;;;1.60;1.50;;;;;;;;;;5085767;28;24453;-57
2021/07/09 12:18:09;;;;;;;3.90;3.70;;;;;;;;;;5087547;28;24505;-57
2021/07/09 12:20:37;;;;;;;2.28;1.90;;;;;;;;;;5086749;28;24426;-57
2021/07/09 12:23:03;;;;;;;1.50;1.40;;;;;;;;;;5087236;28;24459;-57
2021/07/09 12:25:33;;;;;;;1.90;1.80;;;;;;;;;;5085661;28;24418;-57
2021/07/09 12:28:00;;;;;;;1.33;1.33;;;;;;;;;;5087198;28;25018;-57
2021/07/09 12:30:29;;;;;;;1.40;1.30;;;;;;;;;;5087460;28;24445;-57
2021/07/09 12:33:14;;;;;;;1.50;1.40;;;;;;;;;;5087033;28;24947;-56
2021/07/09 12:35:39;;;;;;;1.50;1.40;;;;;;;;;;5085360;28;24513;-57
2021/07/09 12:38:06;;;;;;;1.40;1.30;;;;;;;;;;5087363;28;24632;-56
2021/07/09 12:40:35;;;;;;;1.27;1.27;;;;;;;;;;5087422;28;24390;-57
2021/07/09 12:43:09;;;;;;;1.10;1.10;;;;;;;;;;5087051;28;24413;-57
2021/07/09 12:45:34;;;;;;;1.50;1.40;;;;;;;;;;5067068;28;24399;-57
2021/07/09 12:48:00;;;;;;;1.20;1.10;;;;;;;;;;5066833;28;24440;-57
2021/07/09 12:50:26;;;;;;;1.20;1.20;;;;;;;;;;5066879;28;24398;-56
2021/07/09 12:52:52;;;;;;;1.30;1.10;;;;;;;;;;5067194;28;24386;-57
2021/07/09 12:55:52;;;;;;;1.30;1.20;;;;;;;;;;5080276;28;24426;-57
2021/07/09 12:58:19;;;;;;;1.52;1.40;;;;;;;;;;5044353;28;24959;-56
2021/07/09 13:00:45;;;;;;;1.42;1.42;;;;;;;;;;5078343;28;24491;-57
2021/07/09 13:03:12;;;;;;;2.00;1.90;;;;;;;;;;5088974;28;24459;-57
2021/07/09 13:05:37;;;;;;;1.90;1.80;;;;;;;;;;5089001;28;25009;-57
2021/07/09 13:08:09;;;;;;;2.20;2.10;;;;;;;;;;5090996;28;24395;-56
2021/07/09 13:10:34;;;;;;;1.88;1.77;;;;;;;;;;5091109;28;24432;-55
2021/07/09 13:13:13;;;;;;;1.50;1.40;;;;;;;;;;5090943;28;24782;-55
2021/07/09 13:15:57;;;;;;;1.63;1.52;;;;;;;;;;5088950;28;24438;-55
2021/07/09 13:18:26;;;;;;;1.80;1.70;;;;;;;;;;5091101;28;24395;-55
2021/07/09 13:20:59;;;;;;;1.80;1.70;;;;;;;;;;5091187;28;24951;-55
2021/07/09 13:23:24;;;;;;;2.17;2.07;;;;;;;;;;5091086;28;24409;-55
2021/07/09 13:26:03;;;;;;;1.75;1.65;;;;;;;;;;5088837;28;24418;-56
2021/07/09 13:28:48;;;;;;;2.00;1.90;;;;;;;;;;5090610;28;24465;-56
2021/07/09 13:31:14;;;;;;;2.20;2.10;;;;;;;;;;5090071;28;25055;-56
2021/07/09 13:33:42;;;;;;;2.20;2.03;;;;;;;;;;5090813;28;24509;-56
2021/07/09 13:36:09;;;;;;;2.00;1.90;;;;;;;;;;5088815;28;24497;-56
2021/07/09 13:38:34;;;;;;;1.70;1.60;;;;;;;;;;5090495;28;24780;-56
2021/07/09 13:40:59;;;;;;;1.90;1.80;;;;;;;;;;5090350;28;25038;-55
2021/07/09 13:43:24;;;;;;;3.83;2.10;;;;;;;;;;5090644;28;24478;-56
2021/07/09 13:45:50;;;;;;;2.78;1.70;;;;;;;;;;5090483;28;24401;-57
2021/07/09 13:48:15;;;;;;;2.40;1.60;;;;;;;;;;5088188;28;24997;-56
2021/07/09 13:50:41;;;;;;;1.73;1.63;;;;;;;;;;5090253;28;24822;-55
2021/07/09 13:53:06;;;;;;;1.60;1.50;;;;;;;;;;5090426;28;24401;-55
2021/07/09 13:55:31;;;;;;;2.30;1.60;;;;;;;;;;5090253;28;24382;-55
2021/07/09 13:57:56;;;;;;;1.97;1.80;;;;;;;;;;5086676;28;24963;-55
2021/07/09 14:00:22;;;;;;;1.70;1.60;;;;;;;;;;5090095;28;24409;-55
2021/07/09 14:02:47;;;;;;;2.40;2.20;;;;;;;;;;5090128;28;24386;-55
2021/07/09 14:05:12;;;;;;;2.00;1.90;;;;;;;;;;5089690;28;24394;-55
2021/07/09 14:07:37;;;;;;;1.80;1.70;;;;;;;;;;5088375;28;24407;-55
2021/07/09 14:10:03;;;;;;;2.00;1.80;;;;;;;;;;5072098;28;25011;-56
2021/07/09 14:12:29;;;;;;;1.70;1.60;;;;;;;;;;5087146;28;24493;-56
2021/07/09 14:14:54;;;;;;;2.10;2.00;;;;;;;;;;5088384;28;24386;-56
2021/07/09 14:17:20;;;;;;;2.10;1.90;;;;;;;;;;5089460;28;24430;-56
2021/07/09 14:19:45;;;;;;;2.10;2.00;;;;;;;;;;5089748;28;24390;-56
2021/07/09 14:22:10;;;;;;;2.40;2.20;;;;;;;;;;5087778;28;24505;-57
2021/07/09 14:24:39;;;;;;;2.00;1.85;;;;;;;;;;5089292;28;24544;-56
2021/07/09 14:27:04;;;;;;;1.80;1.70;;;;;;;;;;5089568;28;24382;-56
2021/07/09 14:29:29;;;;;;;1.70;1.60;;;;;;;;;;5089602;28;24410;-56
2021/07/09 14:31:55;;;;;;;2.00;1.80;;;;;;;;;;5087683;28;24413;-56
2021/07/09 14:34:20;;;;;;;1.80;1.70;;;;;;;;;;5088839;28;24455;-56